createdAt,value
2019-03-01T00:01:54.297Z,136.22
2019-03-01T00:04:27.851Z,144.47
2019-03-01T00:07:14.803Z,132.65
2019-03-01T00:09:48.234Z,150.87
2019-03-01T00:12:26.425Z,149.12
2019-03-01T00:15:15.367Z,153.55
2019-03-01T00:18:01.885Z,212.48
2019-03-01T00:20:38.462Z,199.77
2019-03-01T00:23:19.726Z,232.40
2019-03-01T00:25:52.716Z,226.65
2019-03-01T00:28:32.089Z,230.27
2019-03-01T00:31:10.357Z,261.20
2019-03-01T00:33:46.157Z,303.32
2019-03-01T00:36:31.177Z,335.95
2019-03-01T00:39:07.738Z,349.65
2019-03-01T00:41:47.858Z,356.10
2019-03-01T00:44:35.964Z,364.33
2019-03-01T00:47:04.934Z,369.07
2019-03-01T00:49:33.929Z,354.75
2019-03-01T00:52:06.474Z,361.70
2019-03-01T00:54:35.536Z,373.82
2019-03-01T00:57:06.043Z,381.85
2019-03-01T00:59:36.526Z,396.80
2019-03-01T01:02:05.619Z,392.45
2019-03-01T01:04:34.600Z,359.50
2019-03-01T01:07:03.648Z,334.27
2019-03-01T01:09:32.641Z,352.82
2019-03-01T01:12:02.863Z,384.15
2019-03-01T01:14:33.484Z,309.30
2019-03-01T01:17:05.484Z,333.87
2019-03-01T01:19:34.467Z,342.05
2019-03-01T01:22:03.440Z,318.12
2019-03-01T01:24:34.877Z,293.20
2019-03-01T01:27:06.637Z,267.52
2019-03-01T01:29:38.130Z,250.28
2019-03-01T01:32:06.558Z,232.30
2019-03-01T01:34:38.507Z,221.65
2019-03-01T01:37:07.589Z,227.75
2019-03-01T01:39:39.554Z,188.90
2019-03-01T01:42:14.364Z,192.40
2019-03-01T01:44:43.308Z,185.97
2019-03-01T01:47:22.674Z,179.90
2019-03-01T01:49:54.524Z,174.53
2019-03-01T01:52:26.801Z,173.02
2019-03-01T01:54:56.851Z,160.48
2019-03-01T01:57:25.827Z,156.82
2019-03-01T01:59:55.865Z,156.18
2019-03-01T02:02:24.877Z,148.72
2019-03-01T02:04:53.895Z,155.25
2019-03-01T02:07:25.988Z,171.82
2019-03-01T02:09:57.551Z,180.32
2019-03-01T02:12:26.565Z,194.65
2019-03-01T02:14:59.541Z,195.03
2019-03-01T02:17:35.301Z,200.35
2019-03-01T02:20:19.049Z,220.05
2019-03-01T02:22:51.071Z,260.93
2019-03-01T02:25:22.845Z,271.87
2019-03-01T02:27:51.951Z,375.82
2019-03-01T02:30:22.473Z,379.32
2019-03-01T02:32:51.517Z,399.77
2019-03-01T02:35:20.479Z,401.93
2019-03-01T02:37:49.445Z,463.42
2019-03-01T02:40:21.255Z,421.20
2019-03-01T02:42:50.436Z,441.90
2019-03-01T02:45:20.359Z,479.00
2019-03-01T02:47:49.604Z,463.70
2019-03-01T02:50:19.689Z,446.75
2019-03-01T02:52:52.268Z,449.40
2019-03-01T02:55:24.896Z,457.43
2019-03-01T02:57:57.944Z,446.77
2019-03-01T03:00:29.324Z,476.65
2019-03-01T03:02:58.432Z,480.65
2019-03-01T03:05:27.445Z,463.57
2019-03-01T03:08:03.198Z,438.40
2019-03-01T03:10:34.120Z,420.55
2019-03-01T03:13:06.582Z,406.75
2019-03-01T03:15:44.210Z,411.05
2019-03-01T03:18:17.551Z,386.75
2019-03-01T03:20:49.676Z,378.85
2019-03-01T03:23:22.225Z,400.90
2019-03-01T03:25:51.249Z,392.75
2019-03-01T03:28:22.133Z,384.13
2019-03-01T03:30:51.199Z,409.75
2019-03-01T03:33:23.244Z,439.50
2019-03-01T03:35:57.283Z,421.85
2019-03-01T03:38:24.862Z,370.88
2019-03-01T03:40:57.999Z,400.85
2019-03-01T03:43:26.965Z,361.07
2019-03-01T03:45:56.412Z,316.42
2019-03-01T03:48:25.459Z,322.98
2019-03-01T03:50:54.454Z,288.25
2019-03-01T03:53:26.518Z,332.80
2019-03-01T03:55:55.658Z,320.65
2019-03-01T03:58:24.613Z,350.15
2019-03-01T04:00:59.484Z,324.90
2019-03-01T04:03:28.709Z,340.95
2019-03-01T04:05:57.711Z,355.10
2019-03-01T04:08:27.279Z,366.27
2019-03-01T04:10:56.327Z,311.92
2019-03-01T04:13:25.431Z,343.55
2019-03-01T04:15:54.406Z,378.07
2019-03-01T04:18:23.414Z,358.00
2019-03-01T04:20:52.476Z,410.45
2019-03-01T04:23:21.458Z,395.40
2019-03-01T04:25:52.789Z,423.17
2019-03-01T04:28:23.295Z,414.52
2019-03-01T04:30:56.923Z,504.27
2019-03-01T04:33:27.803Z,537.67
2019-03-01T04:36:01.887Z,543.15
2019-03-01T04:38:30.219Z,543.52
2019-03-01T04:43:30.123Z,506.95
2019-03-01T04:45:59.134Z,546.67
2019-03-01T04:48:28.166Z,534.10
2019-03-01T04:50:57.239Z,557.98
2019-03-01T04:53:27.427Z,557.25
2019-03-01T04:56:02.019Z,582.45
2019-03-01T04:58:31.113Z,592.67
2019-03-01T05:01:00.073Z,597.60
2019-03-01T05:03:29.075Z,585.58
2019-03-01T05:05:58.260Z,584.92
2019-03-01T05:08:27.246Z,636.60
2019-03-01T05:10:59.535Z,572.58
2019-03-01T05:13:28.558Z,614.23
2019-03-01T05:15:57.768Z,636.17
2019-03-01T05:18:26.810Z,613.37
2019-03-01T05:20:55.833Z,579.58
2019-03-01T05:23:26.762Z,622.30
2019-03-01T05:25:55.750Z,613.80
2019-03-01T05:28:24.765Z,614.02
2019-03-01T05:30:53.803Z,644.00
2019-03-01T05:33:25.564Z,610.08
2019-03-01T05:35:54.545Z,607.65
2019-03-01T05:38:26.200Z,618.97
2019-03-01T05:40:57.602Z,601.20
2019-03-01T05:43:29.794Z,632.45
2019-03-01T05:46:06.677Z,601.10
2019-03-01T05:48:39.907Z,657.27
2019-03-01T05:51:08.887Z,670.02
2019-03-01T05:53:37.862Z,665.38
2019-03-01T05:56:16.902Z,616.65
2019-03-01T05:58:50.417Z,626.75
2019-03-01T06:01:28.179Z,636.12
2019-03-01T06:04:00.298Z,647.30
2019-03-01T06:06:35.026Z,664.23
2019-03-01T06:09:11.448Z,590.92
2019-03-01T06:11:41.964Z,623.97
2019-03-01T06:14:12.478Z,633.50
2019-03-01T06:16:45.696Z,631.27
2019-03-01T06:19:16.211Z,656.70
2019-03-01T06:21:51.893Z,651.85
2019-03-01T06:24:22.915Z,684.75
2019-03-01T06:26:56.391Z,648.47
2019-03-01T06:29:34.858Z,677.47
2019-03-01T06:32:26.404Z,654.45
2019-03-01T06:34:56.990Z,672.40
2019-03-01T06:37:36.496Z,671.00
2019-03-01T06:40:24.998Z,651.95
2019-03-01T06:42:57.591Z,716.27
2019-03-01T06:45:36.070Z,681.10
2019-03-01T06:48:05.263Z,661.75
2019-03-01T06:50:41.694Z,689.30
2019-03-01T06:53:10.683Z,697.95
2019-03-01T06:55:41.337Z,688.55
2019-03-01T06:58:18.266Z,629.60
2019-03-01T07:00:50.371Z,575.92
2019-03-01T07:03:22.474Z,580.60
2019-03-01T07:05:51.449Z,541.55
2019-03-01T07:08:20.434Z,499.05
2019-03-01T07:10:49.430Z,494.43
2019-03-01T07:13:18.486Z,478.85
2019-03-01T07:15:50.451Z,460.45
2019-03-01T07:18:19.420Z,468.35
2019-03-01T07:20:48.405Z,480.33
2019-03-01T07:23:17.743Z,461.75
2019-03-01T07:28:18.303Z,334.85
2019-03-01T07:30:47.517Z,289.20
2019-03-01T07:33:18.401Z,225.70
2019-03-01T07:35:47.474Z,192.45
2019-03-01T07:38:16.441Z,174.20
2019-03-01T07:40:47.117Z,153.00
2019-03-01T07:43:16.105Z,167.98
2019-03-01T07:45:49.834Z,171.37
2019-03-01T07:48:19.051Z,144.72
2019-03-01T07:50:52.526Z,137.75
2019-03-01T07:53:21.579Z,111.60
2019-03-01T07:55:52.301Z,126.42
2019-03-01T07:58:25.485Z,129.10
2019-03-01T08:00:55.713Z,108.00
2019-03-01T08:03:28.351Z,98.78
2019-03-01T08:05:59.008Z,107.90
2019-03-01T08:08:30.305Z,106.97
2019-03-01T08:11:00.551Z,97.10
2019-03-01T08:13:33.187Z,97.45
2019-03-01T08:16:02.598Z,82.22
2019-03-01T08:18:33.296Z,99.60
2019-03-01T08:21:10.142Z,90.00
2019-03-01T08:23:40.180Z,89.47
2019-03-01T08:26:09.158Z,88.27
2019-03-01T08:28:42.161Z,94.87
2019-03-01T08:31:11.189Z,90.60
2019-03-01T08:33:43.439Z,74.03
2019-03-01T08:36:12.895Z,62.93
2019-03-01T08:38:43.591Z,73.25
2019-03-01T08:41:12.894Z,80.77
2019-03-01T08:43:44.729Z,76.15
2019-03-01T08:46:18.774Z,73.45
2019-03-01T08:48:47.752Z,71.87
2019-03-01T08:51:22.493Z,89.10
2019-03-01T08:53:51.003Z,96.82
2019-03-01T08:56:26.231Z,94.92
2019-03-01T08:58:56.899Z,93.35
2019-03-01T09:01:31.682Z,89.45
2019-03-01T09:04:03.592Z,80.85
2019-03-01T09:06:32.847Z,71.57
2019-03-01T09:09:01.824Z,77.33
2019-03-01T09:11:37.900Z,71.95
2019-03-01T09:14:06.939Z,55.30
2019-03-01T09:16:35.922Z,63.42
2019-03-01T09:19:04.890Z,43.52
2019-03-01T09:21:35.068Z,37.75
2019-03-01T09:26:35.546Z,41.58
2019-03-01T09:29:05.108Z,28.47
2019-03-01T09:31:34.095Z,34.78
2019-03-01T09:34:03.500Z,34.15
2019-03-01T09:36:35.708Z,39.35
2019-03-01T09:39:07.862Z,32.90
2019-03-01T09:41:40.516Z,37.63
2019-03-01T09:44:15.369Z,32.93
2019-03-01T09:46:44.361Z,28.23
2019-03-01T09:49:14.605Z,32.03
2019-03-01T09:51:49.127Z,34.85
2019-03-01T09:54:16.047Z,30.92
2019-03-01T09:56:45.001Z,33.48
2019-03-01T09:59:16.852Z,26.12
2019-03-01T10:01:47.381Z,27.15
2019-03-01T10:04:17.881Z,20.68
2019-03-01T10:06:52.631Z,23.65
2019-03-01T10:09:22.709Z,17.85
2019-03-01T10:17:13.893Z,17.25
2019-03-01T10:19:42.927Z,16.55
2019-03-01T10:22:12.008Z,15.10
2019-03-01T10:24:41.018Z,11.38
2019-03-01T10:27:10.016Z,16.30
2019-03-01T10:29:38.972Z,15.65
2019-03-01T10:34:37.575Z,8.03
2019-03-01T10:37:08.191Z,8.20
2019-03-01T10:39:37.155Z,9.73
2019-03-01T10:42:06.192Z,7.72
2019-03-01T10:44:42.566Z,9.50
2019-03-01T10:47:11.619Z,12.55
2019-03-01T10:49:40.655Z,9.10
2019-03-01T10:52:11.957Z,11.12
2019-03-01T10:54:40.915Z,10.50
2019-03-01T10:57:10.461Z,12.55
2019-03-01T10:59:39.937Z,6.03
2019-03-01T11:02:13.824Z,9.55
2019-03-01T11:04:52.997Z,9.28
2019-03-01T11:07:22.246Z,7.17
2019-03-01T11:09:52.667Z,4.07
2019-03-01T11:12:21.648Z,7.78
2019-03-01T11:14:52.225Z,3.85
2019-03-01T11:17:21.258Z,10.78
2019-03-01T11:19:51.767Z,6.33
2019-03-01T11:22:20.759Z,7.37
2019-03-01T11:27:20.870Z,7.17
2019-03-01T11:29:49.850Z,5.58
2019-03-01T11:32:19.874Z,8.43
2019-03-01T11:34:49.082Z,8.45
2019-03-01T11:37:18.062Z,5.97
2019-03-01T11:39:47.016Z,8.90
2019-03-01T11:42:18.784Z,5.03
2019-03-01T11:44:51.810Z,5.92
2019-03-01T11:47:21.100Z,6.65
2019-03-01T11:49:52.206Z,8.13
2019-03-01T11:52:22.651Z,2.83
2019-03-01T11:54:51.594Z,5.15
2019-03-01T11:57:22.664Z,2.12
2019-03-01T11:59:51.682Z,2.52
2019-03-01T12:02:20.726Z,2.92
2019-03-01T12:04:49.672Z,4.35
2019-03-01T12:07:20.263Z,4.22
2019-03-01T12:09:54.796Z,2.70
2019-03-01T12:12:23.868Z,4.15
2019-03-01T12:14:53.327Z,3.52
2019-03-01T12:17:22.284Z,3.00
2019-03-01T12:19:51.257Z,3.85
2019-03-01T12:22:22.014Z,6.87
2019-03-01T12:24:52.516Z,2.60
2019-03-01T12:27:26.091Z,8.00
2019-03-01T12:29:55.990Z,5.08
2019-03-01T12:32:24.942Z,4.70
2019-03-01T12:34:53.905Z,9.05
2019-03-01T12:37:27.429Z,4.78
2019-03-01T12:39:56.475Z,2.35
2019-03-01T12:42:25.713Z,1.62
2019-03-01T12:44:54.747Z,2.63
2019-03-01T12:47:23.705Z,3.98
2019-03-01T12:49:52.703Z,4.42
2019-03-01T12:52:26.703Z,2.92
2019-03-01T12:54:58.533Z,3.65
2019-03-01T12:57:27.635Z,5.28
2019-03-01T12:59:57.625Z,6.80
2019-03-01T13:04:54.911Z,2.60
2019-03-01T13:07:23.954Z,4.67
2019-03-01T13:09:53.459Z,4.08
2019-03-01T13:12:25.997Z,3.35
2019-03-01T13:14:53.066Z,2.47
2019-03-01T13:17:25.113Z,4.05
2019-03-01T13:22:45.048Z,2.25
2019-03-01T13:25:15.613Z,5.53
2019-03-01T13:27:48.796Z,4.37
2019-03-01T13:30:26.129Z,2.42
2019-03-01T13:32:55.262Z,8.80
2019-03-01T13:35:27.237Z,3.47
2019-03-01T13:37:58.351Z,4.62
2019-03-01T13:40:27.584Z,3.10
2019-03-01T13:42:56.518Z,2.67
2019-03-01T13:45:26.049Z,3.58
2019-03-01T13:47:56.193Z,2.92
2019-03-01T13:52:55.696Z,2.10
2019-03-01T13:55:24.797Z,4.75
2019-03-01T13:57:53.870Z,3.77
2019-03-01T14:00:23.120Z,4.33
2019-03-01T14:02:53.533Z,3.50
2019-03-01T14:05:22.823Z,5.03
2019-03-01T14:07:56.702Z,3.70
2019-03-01T14:10:32.487Z,3.70
2019-03-01T14:13:01.960Z,3.30
2019-03-01T14:15:38.558Z,3.35
2019-03-01T14:18:11.454Z,3.90
2019-03-01T14:20:41.638Z,3.83
2019-03-01T14:23:10.654Z,4.92
2019-03-01T14:25:45.638Z,2.77
2019-03-01T14:28:14.644Z,3.83
2019-03-01T14:30:43.624Z,3.98
2019-03-01T14:33:12.678Z,7.58
2019-03-01T14:35:43.516Z,3.98
2019-03-01T14:38:14.260Z,3.15
2019-03-01T14:40:48.940Z,5.58
2019-03-01T14:43:20.289Z,2.00
2019-03-01T14:45:50.964Z,3.75
2019-03-01T14:48:20.376Z,3.62
2019-03-01T14:50:49.329Z,2.10
2019-03-01T14:53:18.310Z,2.75
2019-03-01T14:55:51.754Z,1.87
2019-03-01T14:58:28.077Z,2.70
2019-03-01T15:00:58.961Z,2.50
2019-03-01T15:03:33.152Z,2.60
2019-03-01T15:06:02.726Z,2.25
2019-03-01T15:08:35.735Z,2.47
2019-03-01T15:11:10.285Z,2.92
2019-03-01T15:13:40.115Z,4.92
2019-03-01T15:16:12.730Z,3.83
2019-03-01T15:18:42.157Z,1.25
2019-03-01T15:21:14.835Z,2.55
2019-03-01T15:23:45.988Z,1.72
2019-03-01T15:26:16.542Z,1.65
2019-03-01T15:28:54.029Z,3.52
2019-03-01T15:31:21.093Z,2.50
2019-03-01T15:33:56.652Z,2.70
2019-03-01T15:36:26.263Z,3.10
2019-03-01T15:38:55.235Z,4.20
2019-03-01T15:43:55.077Z,4.60
2019-03-01T15:46:24.076Z,3.92
2019-03-01T15:48:53.041Z,6.20
2019-03-01T15:51:22.083Z,6.65
2019-03-01T15:53:53.536Z,3.52
2019-03-01T15:56:22.275Z,5.75
2019-03-01T16:01:25.371Z,7.83
2019-03-01T16:03:57.954Z,5.25
2019-03-01T16:06:29.165Z,3.35
2019-03-01T16:08:58.201Z,1.85
2019-03-01T16:11:28.446Z,3.40
2019-03-01T16:14:00.614Z,4.90
2019-03-01T16:16:31.749Z,3.15
2019-03-01T16:19:00.687Z,3.98
2019-03-01T16:21:31.181Z,6.30
2019-03-01T16:24:04.986Z,4.92
2019-03-01T16:26:37.595Z,2.60
2019-03-01T16:29:07.354Z,3.08
2019-03-01T16:31:37.503Z,3.80
2019-03-01T16:34:06.538Z,3.40
2019-03-01T16:36:38.699Z,3.55
2019-03-01T16:39:09.190Z,4.00
2019-03-01T16:41:42.638Z,1.95
2019-03-01T16:44:10.602Z,2.30
2019-03-01T16:46:40.793Z,2.80
2019-03-01T16:49:09.826Z,5.03
2019-03-01T16:51:38.770Z,3.70
2019-03-01T16:54:09.039Z,5.30
2019-03-01T16:56:38.458Z,8.10
2019-03-01T16:59:11.326Z,5.90
2019-03-01T17:01:40.795Z,4.97
2019-03-01T17:04:12.575Z,5.72
2019-03-01T17:06:41.604Z,2.47
2019-03-01T17:09:11.807Z,3.00
2019-03-01T17:11:43.194Z,6.20
2019-03-01T17:14:15.953Z,3.37
2019-03-01T17:16:45.235Z,2.85
2019-03-01T17:19:16.848Z,3.27
2019-03-01T17:21:50.534Z,5.53
2019-03-01T17:24:20.664Z,4.10
2019-03-01T17:26:51.778Z,6.65
2019-03-01T17:29:20.802Z,5.80
2019-03-01T17:31:49.775Z,3.50
2019-03-01T17:34:25.447Z,5.53
2019-03-01T17:36:54.685Z,6.62
2019-03-01T17:39:25.289Z,3.98
2019-03-01T17:41:55.818Z,2.25
2019-03-01T17:44:26.055Z,3.70
2019-03-01T17:46:57.570Z,10.45
2019-03-01T17:49:29.678Z,3.75
2019-03-01T17:52:06.356Z,4.67
2019-03-01T17:54:35.304Z,6.55
2019-03-01T17:57:04.523Z,10.68
2019-03-01T17:59:33.443Z,5.77
2019-03-01T18:02:02.513Z,7.33
2019-03-01T18:04:36.872Z,5.95
2019-03-01T18:07:11.923Z,5.15
2019-03-01T18:09:40.911Z,6.50
2019-03-01T18:12:10.474Z,4.37
2019-03-01T18:14:46.004Z,5.92
2019-03-01T18:17:18.421Z,4.05
2019-03-01T18:19:47.416Z,3.65
2019-03-01T18:22:23.051Z,4.37
2019-03-01T18:24:53.129Z,4.45
2019-03-01T18:27:22.085Z,2.65
2019-03-01T18:29:53.407Z,2.92
2019-03-01T18:32:22.366Z,3.50
2019-03-01T18:34:51.391Z,3.40
2019-03-01T18:37:20.341Z,3.50
2019-03-01T18:39:50.588Z,2.30
2019-03-01T18:42:25.723Z,5.00
2019-03-01T18:44:57.196Z,6.37
2019-03-01T18:47:33.000Z,4.87
2019-03-01T18:50:06.095Z,3.02
2019-03-01T18:52:38.666Z,3.27
2019-03-01T18:55:19.231Z,3.25
2019-03-01T18:57:51.291Z,2.87
2019-03-01T19:00:28.973Z,5.95
2019-03-01T19:03:04.623Z,4.70
2019-03-01T19:05:32.781Z,3.40
2019-03-01T19:08:04.828Z,3.85
2019-03-01T19:10:35.680Z,4.40
2019-03-01T19:13:04.674Z,3.00
2019-03-01T19:15:35.213Z,2.98
2019-03-01T19:18:06.007Z,5.12
2019-03-01T19:20:37.939Z,3.80
2019-03-01T19:23:07.689Z,4.35
2019-03-01T19:25:36.690Z,5.85
2019-03-01T19:28:09.081Z,7.42
2019-03-01T19:30:39.196Z,2.80
2019-03-01T19:33:08.172Z,5.25
2019-03-01T19:35:38.736Z,7.83
2019-03-01T19:38:08.190Z,4.62
2019-03-01T19:40:39.777Z,3.80
2019-03-01T19:43:11.118Z,4.62
2019-03-01T19:45:44.555Z,3.70
2019-03-01T19:48:13.520Z,4.10
2019-03-01T19:50:43.579Z,4.22
2019-03-01T19:53:12.819Z,5.05
2019-03-01T19:55:43.998Z,5.05
2019-03-01T19:58:12.783Z,4.80
2019-03-01T20:00:48.026Z,4.72
2019-03-01T20:03:19.858Z,5.42
2019-03-01T20:05:54.455Z,5.47
2019-03-01T20:08:26.447Z,6.20
2019-03-01T20:10:55.695Z,5.70
2019-03-01T20:13:24.710Z,5.92
2019-03-01T20:15:55.785Z,4.53
2019-03-01T20:18:26.214Z,7.03
2019-03-01T20:20:55.382Z,8.85
2019-03-01T20:23:29.466Z,7.60
2019-03-01T20:25:58.894Z,8.88
2019-03-01T20:28:29.366Z,6.72
2019-03-01T20:31:04.611Z,6.15
2019-03-01T20:33:32.661Z,5.05
2019-03-01T20:36:01.629Z,6.90
2019-03-01T20:38:30.635Z,4.95
2019-03-01T20:40:59.838Z,7.35
2019-03-01T20:43:33.814Z,8.85
2019-03-01T20:46:03.796Z,8.48
2019-03-01T20:48:33.511Z,7.28
2019-03-01T20:51:10.521Z,8.30
2019-03-01T20:53:37.839Z,7.72
2019-03-01T20:56:13.901Z,8.10
2019-03-01T20:58:40.430Z,8.80
2019-03-01T21:01:09.719Z,9.78
2019-03-01T21:03:41.029Z,11.25
2019-03-01T21:06:12.185Z,9.73
2019-03-01T21:08:41.150Z,11.05
2019-03-01T21:11:10.265Z,13.18
2019-03-01T21:13:39.538Z,14.15
2019-03-01T21:16:09.687Z,11.10
2019-03-01T21:21:10.089Z,16.02
2019-03-01T21:23:42.564Z,10.40
2019-03-01T21:26:12.047Z,15.93
2019-03-01T21:28:42.493Z,19.98
2019-03-01T21:31:11.463Z,14.47
2019-03-01T21:33:40.459Z,15.88
2019-03-01T21:36:09.427Z,16.42
2019-03-01T21:38:40.218Z,17.35
2019-03-01T21:41:11.199Z,21.37
2019-03-01T21:43:41.793Z,14.98
2019-03-01T21:46:34.074Z,18.25
2019-03-01T21:49:11.150Z,19.23
2019-03-01T21:51:40.121Z,13.80
2019-03-01T21:54:12.561Z,18.57
2019-03-01T21:56:55.391Z,18.87
2019-03-01T21:59:13.710Z,13.20
2019-03-01T22:01:43.640Z,18.70
2019-03-01T22:04:16.027Z,15.98
2019-03-01T22:06:45.562Z,14.50
2019-03-01T22:09:16.403Z,14.00
2019-03-01T22:11:49.207Z,16.37
2019-03-01T22:14:21.630Z,17.23
2019-03-01T22:19:30.551Z,13.98
2019-03-01T22:21:59.590Z,12.73
2019-03-01T22:24:29.014Z,13.25
2019-03-01T22:26:58.002Z,18.70
2019-03-01T22:29:27.957Z,16.48
2019-03-01T22:32:01.550Z,17.50
2019-03-01T22:34:34.332Z,16.65
2019-03-01T22:37:06.124Z,20.08
2019-03-01T22:39:42.833Z,18.00
2019-03-01T22:42:14.295Z,22.55
2019-03-01T22:44:44.478Z,18.05
2019-03-01T22:47:13.559Z,19.67
2019-03-01T22:49:42.698Z,19.80
2019-03-01T22:52:11.617Z,15.98
2019-03-01T22:54:43.488Z,19.90
2019-03-01T22:57:12.459Z,23.47
2019-03-01T22:59:47.251Z,19.48
2019-03-01T23:02:15.587Z,20.82
2019-03-01T23:04:46.203Z,23.10
2019-03-01T23:07:16.807Z,20.00
2019-03-01T23:09:47.571Z,15.68
2019-03-01T23:12:18.410Z,22.65
2019-03-01T23:14:48.995Z,25.68
2019-03-01T23:17:19.768Z,19.25
2019-03-01T23:19:51.688Z,20.72
2019-03-01T23:22:21.643Z,17.40
2019-03-01T23:24:50.651Z,19.87
2019-03-01T23:27:19.880Z,17.85
2019-03-01T23:29:50.930Z,18.43
2019-03-01T23:32:21.218Z,16.67
2019-03-01T23:34:50.277Z,20.77
2019-03-01T23:37:19.376Z,22.52
2019-03-01T23:39:48.372Z,21.95
2019-03-01T23:42:20.896Z,17.62
2019-03-01T23:44:49.399Z,15.63
2019-03-01T23:47:18.436Z,22.40
2019-03-01T23:49:47.409Z,18.25
2019-03-01T23:52:19.553Z,21.30
2019-03-01T23:54:47.903Z,22.90
2019-03-01T23:57:20.373Z,22.17
2019-03-01T23:59:52.063Z,26.80
